createdAt,value
2024-03-10T00:00:16.549Z,41.53
2024-03-10T00:05:40.524Z,49.92
2024-03-10T00:11:07.661Z,37.97
2024-03-10T00:16:30.664Z,49.83
2024-03-10T00:21:55.329Z,52.40
2024-03-10T00:27:19.623Z,47.88
2024-03-10T00:32:43.049Z,40.83
2024-03-10T00:38:06.505Z,47.00
2024-03-10T00:43:31.055Z,47.35
2024-03-10T00:48:56.359Z,39.92
2024-03-10T00:54:19.513Z,45.92
2024-03-10T00:59:44.325Z,52.65
2024-03-10T01:05:08.451Z,53.80
2024-03-10T01:10:32.818Z,39.70
2024-03-10T01:15:57.334Z,43.30
2024-03-10T01:21:22.308Z,37.33
2024-03-10T01:26:45.513Z,52.20
2024-03-10T01:32:10.237Z,52.28
2024-03-10T01:42:56.719Z,54.60
2024-03-10T01:48:21.654Z,53.30
2024-03-10T01:53:44.723Z,54.25
2024-03-10T01:59:10.410Z,43.53
2024-03-10T02:04:38.275Z,55.58
2024-03-10T02:10:02.346Z,55.40
2024-03-10T02:15:25.714Z,42.28
2024-03-10T02:20:50.071Z,54.80
2024-03-10T02:26:16.715Z,48.22
2024-03-10T02:31:57.388Z,61.38
2024-03-10T02:37:38.266Z,60.28
2024-03-10T02:43:20.384Z,64.18
2024-03-10T02:48:46.212Z,60.10
2024-03-10T02:54:09.337Z,56.42
2024-03-10T02:59:33.660Z,56.53
2024-03-10T03:04:59.686Z,46.90
2024-03-10T03:10:23.285Z,58.53
2024-03-10T03:15:47.682Z,55.35
2024-03-10T03:21:13.365Z,46.28
2024-03-10T03:26:37.757Z,63.47
2024-03-10T03:32:02.547Z,60.45
2024-03-10T03:42:48.500Z,54.70
2024-03-10T03:48:13.249Z,57.47
2024-03-10T03:53:37.099Z,57.58
2024-03-10T03:59:01.605Z,56.35
2024-03-10T04:09:50.226Z,56.13
2024-03-10T04:15:14.203Z,56.95
2024-03-10T04:20:43.002Z,48.00
2024-03-10T04:26:10.577Z,63.30
2024-03-10T04:31:33.967Z,62.88
2024-03-10T04:36:58.519Z,63.03
2024-03-10T04:42:21.679Z,62.58
2024-03-10T04:47:45.022Z,59.08
2024-03-10T04:53:12.696Z,65.90
2024-03-10T04:58:36.086Z,60.33
2024-03-10T05:04:02.115Z,64.97
2024-03-10T05:09:26.581Z,66.53
2024-03-10T05:14:50.775Z,52.40
2024-03-10T05:20:18.729Z,61.53
2024-03-10T05:25:43.358Z,66.57
2024-03-10T05:31:06.590Z,50.65
2024-03-10T05:36:29.895Z,71.80
2024-03-10T05:41:55.451Z,69.55
2024-03-10T05:47:19.241Z,62.88
2024-03-10T05:52:43.522Z,48.80
2024-03-10T05:58:13.694Z,56.67
2024-03-10T06:03:36.966Z,65.35
2024-03-10T06:09:01.204Z,69.97
2024-03-10T06:14:31.336Z,53.90
2024-03-10T06:20:13.865Z,62.75
2024-03-10T06:25:36.917Z,63.38
2024-03-10T06:31:03.456Z,56.17
2024-03-10T06:36:28.513Z,49.85
2024-03-10T06:41:52.095Z,48.67
2024-03-10T06:47:16.726Z,54.88
2024-03-10T06:52:46.581Z,54.88
2024-03-10T06:58:09.970Z,60.10
2024-03-10T07:03:37.314Z,56.30
2024-03-10T07:09:00.689Z,53.50
2024-03-10T07:14:23.860Z,49.63
2024-03-10T07:19:48.658Z,52.60
2024-03-10T07:30:39.076Z,49.22
2024-03-10T07:36:03.567Z,52.50
2024-03-10T07:41:27.295Z,42.05
2024-03-10T07:46:50.387Z,35.97
2024-03-10T07:52:15.570Z,46.28
2024-03-10T07:57:40.876Z,45.38
2024-03-10T08:03:04.356Z,48.88
2024-03-10T08:08:29.279Z,46.08
2024-03-10T08:13:52.702Z,47.22
2024-03-10T08:19:18.230Z,44.17
2024-03-10T08:24:42.796Z,43.35
2024-03-10T08:30:10.323Z,36.97
2024-03-10T08:35:33.940Z,42.95
2024-03-10T08:41:00.080Z,44.10
2024-03-10T08:46:24.400Z,43.08
2024-03-10T08:51:47.948Z,35.55
2024-03-10T08:57:13.895Z,41.47
2024-03-10T09:02:43.270Z,36.33
2024-03-10T09:08:12.932Z,37.78
2024-03-10T09:13:39.257Z,36.90
2024-03-10T09:19:02.531Z,37.15
2024-03-10T09:24:25.721Z,40.80
2024-03-10T09:29:58.205Z,35.20
2024-03-10T09:35:25.940Z,37.90
2024-03-10T09:40:50.189Z,38.05
2024-03-10T09:46:15.205Z,27.90
2024-03-10T09:51:39.796Z,37.20
2024-03-10T09:57:07.197Z,27.67
2024-03-10T10:02:36.290Z,38.63
2024-03-10T10:07:59.765Z,34.67
2024-03-10T10:13:23.944Z,38.03
2024-03-10T10:18:54.616Z,32.83
2024-03-10T10:24:22.992Z,39.15
2024-03-10T10:29:50.539Z,45.53
2024-03-10T10:35:17.444Z,30.77
2024-03-10T10:40:41.283Z,32.50
2024-03-10T10:46:05.500Z,26.03
2024-03-10T10:51:30.295Z,40.08
2024-03-10T10:56:55.669Z,35.85
2024-03-10T11:02:21.045Z,33.22
2024-03-10T11:07:46.941Z,31.40
2024-03-10T11:13:12.015Z,37.13
2024-03-10T11:18:37.054Z,35.72
2024-03-10T11:24:02.160Z,28.05
2024-03-10T11:29:28.204Z,30.17
2024-03-10T11:34:52.518Z,30.95
2024-03-10T11:40:17.726Z,30.02
2024-03-10T11:45:41.764Z,25.00
2024-03-10T11:51:06.346Z,26.80
2024-03-10T11:56:33.452Z,24.08
2024-03-10T12:01:58.489Z,23.50
2024-03-10T12:07:26.718Z,20.98
2024-03-10T12:12:53.347Z,23.58
2024-03-10T12:18:18.237Z,21.27
2024-03-10T12:23:43.313Z,22.10
2024-03-10T12:29:10.014Z,24.77
2024-03-10T12:34:33.211Z,20.45
2024-03-10T12:39:57.360Z,25.50
2024-03-10T12:45:24.284Z,23.17
2024-03-10T12:50:50.398Z,21.40
2024-03-10T12:56:14.625Z,18.38
2024-03-10T13:07:02.216Z,16.93
2024-03-10T13:12:25.408Z,23.98
2024-03-10T13:17:50.207Z,17.00
2024-03-10T13:23:14.508Z,18.60
2024-03-10T13:34:02.749Z,15.73
2024-03-10T13:39:28.973Z,23.40
2024-03-10T13:44:53.849Z,22.15
2024-03-10T13:50:20.833Z,23.85
2024-03-10T13:55:45.378Z,19.58
2024-03-10T14:01:08.576Z,18.70
2024-03-10T14:06:33.456Z,19.73
2024-03-10T14:11:57.461Z,22.73
2024-03-10T14:17:20.645Z,21.65
2024-03-10T14:22:46.865Z,20.77
2024-03-10T14:28:09.930Z,19.38
2024-03-10T14:33:34.426Z,23.52
2024-03-10T14:38:58.876Z,17.25
2024-03-10T14:44:22.720Z,17.23
2024-03-10T14:49:48.587Z,25.17
2024-03-10T14:55:16.355Z,23.15
2024-03-10T15:00:42.062Z,23.45
2024-03-10T15:06:06.852Z,27.70
2024-03-10T15:16:55.670Z,26.92
2024-03-10T15:22:19.235Z,25.05
2024-03-10T15:27:43.597Z,26.50
2024-03-10T15:33:06.812Z,25.58
2024-03-10T15:38:30.205Z,25.90
2024-03-10T15:43:55.899Z,23.50
2024-03-10T15:49:19.039Z,23.23
2024-03-10T15:54:42.251Z,23.15
2024-03-10T16:00:08.434Z,21.52
2024-03-10T16:05:38.816Z,20.45
2024-03-10T16:11:02.070Z,20.58
2024-03-10T16:16:26.625Z,20.45
2024-03-10T16:21:52.653Z,20.42
2024-03-10T16:27:16.944Z,19.65
2024-03-10T16:32:41.629Z,17.25
2024-03-10T16:38:07.665Z,23.00
2024-03-10T16:43:30.700Z,20.58
2024-03-10T16:48:55.290Z,27.90
2024-03-10T16:54:18.160Z,16.20
2024-03-10T16:59:42.411Z,20.30
2024-03-10T17:05:07.233Z,21.17
2024-03-10T17:10:31.028Z,19.60
2024-03-10T17:15:54.269Z,18.93
2024-03-10T17:21:18.846Z,20.90
2024-03-10T17:26:43.147Z,15.07
2024-03-10T17:32:07.418Z,19.13
2024-03-10T17:37:32.142Z,26.73
2024-03-10T17:48:20.060Z,21.10
2024-03-10T17:53:46.253Z,19.35
2024-03-10T17:59:09.295Z,18.92
2024-03-10T18:04:35.122Z,19.95
2024-03-10T18:10:00.325Z,20.27
2024-03-10T18:15:25.765Z,21.73
2024-03-10T18:20:50.124Z,20.33
2024-03-10T18:26:14.920Z,19.73
2024-03-10T18:37:01.872Z,21.45
2024-03-10T18:42:26.249Z,21.85
2024-03-10T18:47:49.400Z,16.65
2024-03-10T18:53:12.434Z,22.55
2024-03-10T18:58:36.762Z,21.65
2024-03-10T19:04:00.885Z,20.02
2024-03-10T19:09:24.320Z,22.60
2024-03-10T19:14:48.704Z,26.02
2024-03-10T19:20:22.406Z,25.02
2024-03-10T19:25:48.948Z,25.42
2024-03-10T19:31:13.280Z,27.55
2024-03-10T19:36:41.333Z,23.55
2024-03-10T19:42:04.485Z,26.95
2024-03-10T19:47:28.843Z,27.10
2024-03-10T19:52:54.215Z,23.95
2024-03-10T19:58:17.652Z,25.05
2024-03-10T20:03:41.949Z,24.30
2024-03-10T20:09:06.701Z,24.75
2024-03-10T20:19:55.428Z,28.08
2024-03-10T20:25:19.662Z,25.92
2024-03-10T20:30:42.662Z,24.48
2024-03-10T20:36:09.762Z,26.92
2024-03-10T20:41:32.703Z,44.88
2024-03-10T20:46:55.672Z,43.38
2024-03-10T20:52:20.485Z,37.10
2024-03-10T21:03:08.781Z,32.05
2024-03-10T21:08:33.877Z,31.10
2024-03-10T21:13:56.845Z,29.58
2024-03-10T21:19:20.106Z,29.42
2024-03-10T21:24:44.378Z,27.75
2024-03-10T21:30:08.755Z,28.92
2024-03-10T21:35:31.843Z,19.85
2024-03-10T21:40:59.076Z,29.90
2024-03-10T21:46:22.614Z,30.70
2024-03-10T21:51:46.737Z,26.95
2024-03-10T21:57:11.011Z,22.23
2024-03-10T22:02:34.567Z,21.48
2024-03-10T22:07:57.846Z,26.08
2024-03-10T22:13:22.242Z,27.58
2024-03-10T22:18:45.785Z,28.52
2024-03-10T22:24:09.586Z,28.67
2024-03-10T22:29:33.846Z,26.17
2024-03-10T22:34:56.844Z,25.40
2024-03-10T22:40:21.463Z,27.58
2024-03-10T22:45:45.965Z,23.77
2024-03-10T22:51:09.078Z,30.40
2024-03-10T22:56:32.299Z,30.73
2024-03-10T23:01:56.688Z,30.48
2024-03-10T23:07:19.772Z,24.13
2024-03-10T23:12:43.357Z,31.25
2024-03-10T23:18:08.585Z,32.40
2024-03-10T23:23:34.558Z,33.85
2024-03-10T23:28:59.072Z,34.03
2024-03-10T23:34:23.306Z,29.05
2024-03-10T23:39:48.030Z,33.28
2024-03-10T23:50:38.119Z,43.58
2024-03-10T23:56:04.259Z,27.45
